Time;durP1;ratioP1;P1;durP2;ratioP2;P2;SDS_P1;SDS_P2;PMS_P1;PMS_P2;Temp;Humidity;BMP_temperature;BMP_pressure;BME280_temperature;BME280_humidity;BME280_pressure;Samples;Min_cycle;Max_cycle;Signal;HPM_P1;HPM_P2
2023/04/25 00:01:38;;;;;;;0.30;0.30;;;;;;;19.02;45.98;100632.66;5115949;27;20058;-45
2023/04/25 00:04:05;;;;;;;0.28;0.28;;;;;;;19.02;45.68;100637.34;5115197;27;20043;-47
2023/04/25 00:06:32;;;;;;;0.20;0.20;;;;;;;19.01;45.73;100630.19;5114796;27;20047;-45
2023/04/25 00:08:58;;;;;;;0.25;0.25;;;;;;;19.02;45.79;100637.34;5114878;27;20105;-45
2023/04/25 00:11:24;;;;;;;0.20;0.20;;;;;;;19.02;45.65;100640.94;5106670;27;20476;-46
2023/04/25 00:13:51;;;;;;;0.22;0.22;;;;;;;19.01;45.99;100639.28;5136055;27;20135;-48
2023/04/25 00:16:17;;;;;;;0.20;0.20;;;;;;;19.01;46.00;100636.53;5129149;27;20059;-47
2023/04/25 00:18:42;;;;;;;0.28;0.28;;;;;;;19.01;46.10;100642.03;5114623;27;20083;-45
2023/04/25 00:21:08;;;;;;;0.20;0.20;;;;;;;19.01;45.70;100642.03;5115074;27;20095;-45
2023/04/25 00:23:36;;;;;;;0.20;0.20;;;;;;;19.01;45.85;100638.47;5116033;27;20039;-45
2023/04/25 00:26:02;;;;;;;0.20;0.20;;;;;;;19.00;45.98;100640.41;5116998;27;20108;-46
2023/04/25 00:28:27;;;;;;;0.20;0.20;;;;;;;19.00;45.63;100643.16;5096484;28;20442;-45
2023/04/25 00:30:53;;;;;;;0.20;0.20;;;;;;;19.02;45.95;100646.44;5097920;28;20044;-45
2023/04/25 00:33:19;;;;;;;0.30;0.30;;;;;;;19.01;45.64;100644.81;5098717;28;20400;-45
2023/04/25 00:35:44;;;;;;;0.30;0.30;;;;;;;19.02;46.01;100648.38;5099755;27;20367;-46
2023/04/25 00:38:10;;;;;;;0.20;0.20;;;;;;;19.01;45.68;100646.75;5118253;27;20365;-46
2023/04/25 00:40:36;;;;;;;0.20;0.20;;;;;;;19.00;45.90;100654.22;5118340;28;20051;-46
2023/04/25 00:43:01;;;;;;;0.20;0.20;;;;;;;19.00;45.73;100653.38;5118228;27;20043;-44
2023/04/25 00:45:29;;;;;;;0.20;0.20;;;;;;;19.00;45.86;100656.97;5118511;27;20069;-46
2023/04/25 00:47:55;;;;;;;0.20;0.20;;;;;;;18.99;45.74;100649.78;5118319;27;20068;-46
2023/04/25 00:50:21;;;;;;;0.30;0.30;;;;;;;18.99;45.93;100644.25;5100144;28;20394;-45
2023/04/25 00:52:47;;;;;;;0.20;0.20;;;;;;;19.00;45.73;100642.34;5118729;27;20103;-46
2023/04/25 00:55:13;;;;;;;0.30;0.30;;;;;;;19.00;45.80;100647.88;5118110;27;20526;-46
2023/04/25 00:57:39;;;;;;;0.20;0.20;;;;;;;19.01;45.91;100649.50;5117998;27;20074;-46
2023/04/25 01:00:06;;;;;;;0.20;0.20;;;;;;;19.00;45.96;100645.94;5118382;27;20047;-46
2023/04/25 01:02:33;;;;;;;0.30;0.30;;;;;;;18.99;45.63;100644.25;5116834;28;20070;-45
2023/04/25 01:04:59;;;;;;;0.20;0.20;;;;;;;18.99;45.75;100640.66;5118586;27;20082;-45
2023/04/25 01:07:25;;;;;;;0.20;0.20;;;;;;;19.00;45.80;100640.41;5116836;27;20047;-45
2023/04/25 01:09:52;;;;;;;0.20;0.20;;;;;;;19.00;45.55;100645.94;5112694;27;20204;-45
2023/04/25 01:12:18;;;;;;;0.20;0.20;;;;;;;18.99;45.76;100655.28;5113612;27;20039;-44
2023/04/25 01:14:43;;;;;;;0.20;0.20;;;;;;;18.99;45.72;100658.06;5117310;28;20103;-45
2023/04/25 01:17:09;;;;;;;0.20;0.20;;;;;;;18.98;45.85;100658.34;5116125;28;20534;-46
2023/04/25 01:19:35;;;;;;;0.20;0.20;;;;;;;18.99;45.94;100655.28;5117138;27;20244;-45
2023/04/25 01:22:01;;;;;;;0.20;0.20;;;;;;;18.99;45.86;100652.53;5116100;28;20043;-46
2023/04/25 01:24:27;;;;;;;0.25;0.25;;;;;;;18.99;45.69;100657.22;5117799;27;20476;-46
2023/04/25 01:26:53;;;;;;;0.20;0.20;;;;;;;18.99;45.86;100649.78;5117969;27;20674;-46
2023/04/25 01:29:20;;;;;;;0.20;0.20;;;;;;;18.99;45.59;100651.72;5115982;27;20084;-45
2023/04/25 01:31:46;;;;;;;0.30;0.30;;;;;;;18.99;45.69;100647.00;5098413;28;20050;-45
2023/04/25 01:34:12;;;;;;;0.22;0.22;;;;;;;18.98;45.91;100645.38;5115692;27;20043;-44
2023/04/25 01:36:39;;;;;;;0.20;0.20;;;;;;;18.99;45.80;100652.53;5099169;28;20109;-45
2023/04/25 01:39:04;;;;;;;0.20;0.20;;;;;;;18.99;45.77;100649.78;5098023;28;20039;-45
2023/04/25 01:41:30;;;;;;;0.30;0.30;;;;;;;18.98;45.88;100648.13;5116707;27;20078;-48
2023/04/25 01:43:56;;;;;;;0.30;0.30;;;;;;;18.99;45.65;100648.94;5096994;27;20047;-46
2023/04/25 01:46:22;;;;;;;0.28;0.28;;;;;;;18.98;45.82;100658.34;5109788;28;20057;-46
2023/04/25 01:48:48;;;;;;;0.20;0.20;;;;;;;18.99;45.88;100666.34;5117466;27;20411;-47
2023/04/25 01:51:13;;;;;;;0.30;0.30;;;;;;;18.99;45.64;100665.50;5115549;28;20054;-45
2023/04/25 01:53:39;;;;;;;0.30;0.30;;;;;;;18.99;45.55;100671.84;5098230;28;20051;-46
2023/04/25 01:56:05;;;;;;;0.30;0.30;;;;;;;18.98;45.78;100675.72;5115663;27;20439;-45
2023/04/25 01:58:31;;;;;;;0.30;0.30;;;;;;;18.98;45.66;100681.25;5115223;27;20047;-46
2023/04/25 02:00:56;;;;;;;0.20;0.20;;;;;;;18.98;45.77;100680.44;5116851;28;20052;-44
2023/04/25 02:03:22;;;;;;;0.20;0.20;;;;;;;18.97;45.82;100671.31;5115313;28;20070;-45
2023/04/25 02:05:49;;;;;;;0.30;0.30;;;;;;;18.96;45.66;100672.44;5116170;27;20051;-47
2023/04/25 02:08:16;;;;;;;0.20;0.20;;;;;;;18.98;45.68;100674.91;5116986;27;20047;-45
2023/04/25 02:10:42;;;;;;;0.20;0.20;;;;;;;18.98;45.92;100675.72;5110246;27;20110;-46
2023/04/25 02:13:08;;;;;;;0.20;0.20;;;;;;;18.98;45.68;100685.94;5128585;27;20043;-46
2023/04/25 02:15:34;;;;;;;0.22;0.22;;;;;;;18.96;45.49;100677.97;5114807;27;20403;-45
2023/04/25 02:18:00;;;;;;;0.30;0.30;;;;;;;18.98;45.82;100684.00;5114907;27;20479;-47
2023/04/25 02:20:26;;;;;;;0.20;0.20;;;;;;;18.98;45.85;100680.44;5115029;28;20137;-45
2023/04/25 02:22:52;;;;;;;0.20;0.20;;;;;;;18.97;45.83;100676.84;5116507;27;20077;-44
2023/04/25 02:25:19;;;;;;;0.20;0.20;;;;;;;18.97;45.61;100668.56;5114844;28;20050;-45
2023/04/25 02:27:46;;;;;;;0.20;0.20;;;;;;;18.97;45.68;100679.59;5116368;27;20092;-45
2023/04/25 02:30:12;;;;;;;0.30;0.30;;;;;;;18.98;45.66;100669.38;5116339;27;20146;-45
2023/04/25 02:32:39;;;;;;;0.20;0.20;;;;;;;18.98;45.60;100680.44;5116146;27;20043;-45
2023/04/25 02:35:05;;;;;;;0.20;0.20;;;;;;;18.97;45.66;100679.59;5115221;28;20388;-45
2023/04/25 02:37:32;;;;;;;0.20;0.20;;;;;;;18.98;45.70;100677.66;5114674;27;20431;-46
2023/04/25 02:39:57;;;;;;;0.20;0.20;;;;;;;18.95;45.69;100670.78;5116993;27;20082;-45
2023/04/25 02:42:23;;;;;;;0.20;0.20;;;;;;;18.97;45.60;100676.03;5109534;27;20043;-46
2023/04/25 02:44:49;;;;;;;0.28;0.28;;;;;;;18.96;45.89;100677.97;5116169;27;20537;-46
2023/04/25 02:47:14;;;;;;;0.20;0.20;;;;;;;18.96;45.59;100664.16;5115656;27;20043;-45
2023/04/25 02:49:40;;;;;;;0.20;0.20;;;;;;;18.96;45.87;100672.44;5116690;27;20415;-44
2023/04/25 02:52:06;;;;;;;0.20;0.20;;;;;;;18.97;45.62;100674.09;5116411;28;20062;-46
2023/04/25 02:54:32;;;;;;;0.20;0.20;;;;;;;18.95;45.75;100668.00;5097744;28;20039;-47
2023/04/25 02:56:57;;;;;;;0.20;0.20;;;;;;;18.97;45.67;100679.59;5116218;27;20435;-47
2023/04/25 02:59:23;;;;;;;0.30;0.30;;;;;;;18.96;45.52;100664.16;5114706;27;20074;-45
2023/04/25 03:01:49;;;;;;;0.20;0.20;;;;;;;18.96;45.62;100674.38;5116743;28;20051;-44
2023/04/25 03:04:15;;;;;;;0.30;0.30;;;;;;;18.96;45.55;100671.63;5116220;27;20080;-45
2023/04/25 03:06:40;;;;;;;0.30;0.30;;;;;;;18.96;45.84;100666.09;5115860;27;20123;-46
2023/04/25 03:09:06;;;;;;;0.30;0.30;;;;;;;18.96;45.84;100671.63;5116516;27;20405;-45
2023/04/25 03:11:32;;;;;;;0.20;0.20;;;;;;;18.95;45.81;100673.53;5134633;27;20038;-47
2023/04/25 03:13:58;;;;;;;0.20;0.20;;;;;;;18.96;45.72;100674.38;5136149;27;20473;-45
2023/04/25 03:16:23;;;;;;;0.20;0.20;;;;;;;18.95;45.45;100676.28;5115813;27;20088;-45
2023/04/25 03:18:50;;;;;;;0.30;0.30;;;;;;;18.95;45.55;100668.00;5115247;27;20162;-45
2023/04/25 03:21:16;;;;;;;0.30;0.30;;;;;;;18.95;45.50;100675.47;5116641;27;20074;-45
2023/04/25 03:23:42;;;;;;;0.20;0.20;;;;;;;18.97;45.53;100681.53;5116006;27;20051;-46
2023/04/25 03:26:07;;;;;;;0.20;0.20;;;;;;;18.95;45.68;100679.03;5094027;28;20128;-45
2023/04/25 03:28:33;;;;;;;0.20;0.20;;;;;;;18.95;45.77;100679.03;5102942;27;20043;-45
2023/04/25 03:30:59;;;;;;;0.30;0.30;;;;;;;18.95;45.76;100681.81;5116164;28;20057;-45
2023/04/25 03:33:24;;;;;;;0.20;0.20;;;;;;;18.94;45.79;100680.16;5116014;27;20331;-46
2023/04/25 03:35:50;;;;;;;0.20;0.20;;;;;;;18.96;45.77;100679.91;5115604;27;20054;-46
2023/04/25 03:38:17;;;;;;;0.20;0.20;;;;;;;18.95;45.69;100684.56;5115794;27;20108;-45
2023/04/25 03:40:42;;;;;;;0.20;0.20;;;;;;;18.96;45.58;100685.41;5113789;28;20043;-46
2023/04/25 03:43:08;;;;;;;0.20;0.20;;;;;;;18.95;45.73;100689.25;5118239;27;20091;-45
2023/04/25 03:45:34;;;;;;;0.20;0.20;;;;;;;18.94;45.72;100693.97;5115015;28;20047;-46
2023/04/25 03:47:59;;;;;;;0.20;0.20;;;;;;;18.94;45.76;100691.19;5099240;27;20075;-45
2023/04/25 03:50:25;;;;;;;0.20;0.20;;;;;;;18.95;45.75;100689.25;5115563;27;20120;-45
2023/04/25 03:52:51;;;;;;;0.30;0.30;;;;;;;18.94;45.56;100688.44;5116117;27;20050;-46
2023/04/25 03:55:17;;;;;;;0.20;0.20;;;;;;;18.95;45.68;100692.84;5115577;27;20063;-45
2023/04/25 03:57:43;;;;;;;0.25;0.25;;;;;;;18.95;45.50;100694.78;5116090;27;20242;-45
2023/04/25 04:00:09;;;;;;;0.20;0.20;;;;;;;18.95;45.60;100700.31;5117325;28;20043;-46
2023/04/25 04:02:36;;;;;;;0.30;0.30;;;;;;;18.94;45.62;100705.00;5119529;27;20501;-47
2023/04/25 04:05:02;;;;;;;0.30;0.30;;;;;;;18.95;45.62;100703.06;5119321;27;20232;-48
2023/04/25 04:07:28;;;;;;;0.20;0.20;;;;;;;18.93;45.77;100697.84;5118433;27;20051;-45
2023/04/25 04:09:54;;;;;;;0.25;0.25;;;;;;;18.94;45.64;100707.75;5119062;27;20051;-46
2023/04/25 04:12:19;;;;;;;0.28;0.28;;;;;;;18.94;45.71;100706.94;5119443;27;20570;-46
2023/04/25 04:14:45;;;;;;;0.28;0.28;;;;;;;18.94;45.51;100705.00;5118858;27;20043;-48
2023/04/25 04:17:11;;;;;;;0.20;0.20;;;;;;;18.94;45.53;100713.28;5117771;27;20047;-45
2023/04/25 04:19:36;;;;;;;0.20;0.20;;;;;;;18.94;45.60;100715.22;5116865;28;20895;-44
2023/04/25 04:22:02;;;;;;;0.20;0.20;;;;;;;18.94;45.51;100713.28;5119131;27;20471;-45
2023/04/25 04:24:28;;;;;;;0.20;0.20;;;;;;;18.93;45.52;100711.63;5118837;28;20047;-45
2023/04/25 04:26:53;;;;;;;0.28;0.28;;;;;;;18.94;45.68;100712.47;5117190;27;20733;-47
2023/04/25 04:29:20;;;;;;;0.22;0.22;;;;;;;18.94;45.44;100715.22;5118765;27;20047;-44
2023/04/25 04:31:49;;;;;;;0.30;0.30;;;;;;;18.93;45.46;100717.16;5116620;28;20236;-46
2023/04/25 04:34:18;;;;;;;;;;;;;;;18.93;45.65;100717.16;5119445;27;20047;-47
2023/04/25 04:36:52;;;;;;;0.20;0.20;;;;;;;18.93;45.46;100717.16;5118513;27;19923;-45
2023/04/25 04:39:18;;;;;;;0.20;0.20;;;;;;;18.92;45.50;100718.28;5110181;27;20054;-46
2023/04/25 04:41:43;;;;;;;0.28;0.28;;;;;;;18.93;45.52;100727.38;5116411;27;20482;-45
2023/04/25 04:44:10;;;;;;;0.20;0.20;;;;;;;18.93;45.52;100730.13;5138040;27;20051;-45
2023/04/25 04:46:41;;;;;;;0.20;0.20;;;;;;;18.93;45.73;100727.38;5118404;27;20051;-45
2023/04/25 04:49:09;;;;;;;0.22;0.22;;;;;;;18.93;45.56;100732.91;5111178;27;20050;-47
2023/04/25 04:51:34;;;;;;;0.20;0.20;;;;;;;18.91;45.49;100737.84;5116377;28;20411;-45
2023/04/25 04:54:02;;;;;;;0.20;0.20;;;;;;;18.92;45.44;100740.34;5117923;27;20475;-45
2023/04/25 04:56:30;;;;;;;0.20;0.20;;;;;;;18.93;45.89;100746.69;5117359;27;20051;-47
2023/04/25 04:58:57;;;;;;;0.30;0.30;;;;;;;18.94;46.26;100751.91;5115801;27;20116;-42
2023/04/25 05:01:23;;;;;;;0.30;0.30;;;;;;;18.95;46.49;100755.50;5111471;27;20058;-44
2023/04/25 05:03:49;;;;;;;0.30;0.30;;;;;;;18.95;45.87;100759.06;5095700;28;20505;-45
2023/04/25 05:06:17;;;;;;;0.20;0.20;;;;;;;18.95;45.73;100763.78;5098871;27;20073;-45
2023/04/25 05:08:43;;;;;;;0.20;0.20;;;;;;;18.93;46.14;100761.31;5104414;27;20060;-46
2023/04/25 05:11:09;;;;;;;0.20;0.20;;;;;;;18.94;45.78;100775.94;5105328;27;20043;-45
2023/04/25 05:13:34;;;;;;;0.20;0.20;;;;;;;18.92;45.96;100773.47;5113527;28;20047;-47
2023/04/25 05:16:00;;;;;;;0.20;0.20;;;;;;;18.94;45.83;100775.94;5103368;27;20410;-47
2023/04/25 05:18:26;;;;;;;0.20;0.20;;;;;;;18.93;45.77;100775.09;5100648;27;20468;-45
2023/04/25 05:20:51;;;;;;;0.20;0.20;;;;;;;18.93;45.65;100780.63;5098067;28;20047;-46
2023/04/25 05:23:17;;;;;;;0.22;0.22;;;;;;;18.94;45.56;100775.94;5102028;27;20488;-45
2023/04/25 05:25:43;;;;;;;0.30;0.30;;;;;;;18.92;45.59;100786.44;5102147;27;20268;-45
2023/04/25 05:28:08;;;;;;;0.22;0.22;;;;;;;18.93;45.95;100786.16;5107701;27;20050;-45
2023/04/25 05:30:34;;;;;;;0.20;0.20;;;;;;;18.91;45.82;100782.84;5104093;28;20439;-44
2023/04/25 05:33:00;;;;;;;0.30;0.30;;;;;;;18.93;45.97;100788.09;5110329;28;20051;-46
2023/04/25 05:35:26;;;;;;;0.30;0.30;;;;;;;18.93;45.74;100788.09;5107373;28;20055;-44
2023/04/25 05:37:51;;;;;;;0.20;0.20;;;;;;;18.92;45.71;100791.97;5116760;27;20427;-45
2023/04/25 05:40:17;;;;;;;0.20;0.20;;;;;;;18.85;46.77;100789.47;5103272;27;20045;-43
2023/04/25 05:42:43;;;;;;;0.30;0.30;;;;;;;18.87;46.93;100790.03;5100076;28;20437;-44
2023/04/25 05:45:09;;;;;;;0.20;0.20;;;;;;;18.91;47.28;100785.63;5096732;28;20051;-45
2023/04/25 05:47:35;;;;;;;0.30;0.30;;;;;;;18.97;46.89;100794.69;5106088;27;20251;-47
2023/04/25 05:50:00;;;;;;;0.20;0.20;;;;;;;18.98;46.77;100799.91;5092366;27;20074;-45
2023/04/25 05:52:26;;;;;;;0.30;0.30;;;;;;;18.98;47.13;100799.91;5095617;28;20051;-49
2023/04/25 05:54:52;;;;;;;0.30;0.30;;;;;;;18.99;46.70;100798.81;5084053;27;20047;-45
2023/04/25 05:57:22;;;;;;;0.30;0.30;;;;;;;19.01;46.87;100804.06;5088756;27;20051;-46
2023/04/25 05:59:48;;;;;;;0.30;0.30;;;;;;;18.99;46.90;100809.84;5085702;27;20097;-45
2023/04/25 06:02:13;;;;;;;0.30;0.30;;;;;;;18.99;46.77;100806.25;5091895;28;20059;-45
2023/04/25 06:04:39;;;;;;;0.20;0.20;;;;;;;19.00;46.56;100807.94;5087075;27;20598;-47
2023/04/25 06:07:05;;;;;;;0.20;0.20;;;;;;;18.99;46.55;100809.84;5093107;27;20076;-46
2023/04/25 06:09:31;;;;;;;0.30;0.30;;;;;;;19.00;46.46;100810.69;5091033;27;20058;-49
2023/04/25 06:11:57;;;;;;;0.30;0.30;;;;;;;19.00;46.89;100813.44;5098689;27;20040;-46
2023/04/25 06:14:22;;;;;;;0.30;0.30;;;;;;;19.00;46.59;100808.75;5096963;27;20419;-46
2023/04/25 06:16:49;;;;;;;0.25;0.25;;;;;;;19.00;46.76;100814.28;5098702;27;20285;-46
2023/04/25 06:19:14;;;;;;;0.30;0.30;;;;;;;19.01;46.76;100820.63;5100264;27;20530;-45
2023/04/25 06:21:42;;;;;;;0.30;0.30;;;;;;;19.02;46.58;100828.59;5099760;27;20048;-46
2023/04/25 06:24:08;;;;;;;0.30;0.30;;;;;;;19.02;46.61;100833.31;5092819;27;20644;-46
2023/04/25 06:26:34;;;;;;;0.20;0.20;;;;;;;19.03;46.57;100841.28;5098391;27;20340;-45
2023/04/25 06:28:59;;;;;;;0.20;0.20;;;;;;;19.02;46.80;100836.06;5092659;27;20065;-46
2023/04/25 06:31:25;;;;;;;0.25;0.25;;;;;;;19.02;46.40;100836.88;5103392;27;20048;-46
2023/04/25 06:33:54;;;;;;;0.20;0.20;;;;;;;19.02;46.92;100836.06;5101440;27;20103;-45
2023/04/25 06:36:24;;;;;;;0.20;0.20;;;;;;;19.03;46.77;100835.75;5099105;27;20096;-46
2023/04/25 06:38:52;;;;;;;0.22;0.22;;;;;;;19.03;46.42;100841.28;5102191;27;20039;-45
2023/04/25 06:41:18;;;;;;;0.20;0.20;;;;;;;19.05;46.65;100843.78;5094857;27;20047;-45
2023/04/25 06:43:44;;;;;;;0.30;0.30;;;;;;;19.07;46.67;100849.00;5093941;27;20042;-46
2023/04/25 06:46:10;;;;;;;0.20;0.20;;;;;;;19.07;46.49;100852.59;5087107;27;20071;-45
2023/04/25 06:48:36;;;;;;;0.28;0.28;;;;;;;19.08;46.37;100853.41;5088580;27;20734;-48
2023/04/25 06:51:02;;;;;;;0.20;0.20;;;;;;;19.09;46.40;100852.34;5085632;28;20044;-45
2023/04/25 06:53:28;;;;;;;0.20;0.20;;;;;;;19.07;46.57;100857.28;5087398;28;20039;-45
2023/04/25 06:55:54;;;;;;;0.30;0.30;;;;;;;19.08;46.29;100856.19;5092412;27;20043;-49
2023/04/25 06:58:20;;;;;;;0.30;0.30;;;;;;;19.09;45.86;100860.63;5093062;27;20091;-44
2023/04/25 07:00:46;;;;;;;0.20;0.20;;;;;;;19.08;45.71;100862.53;5076364;27;20051;-45
2023/04/25 07:03:11;;;;;;;0.20;0.20;;;;;;;19.08;45.78;100857.00;5083502;28;20097;-45
2023/04/25 07:05:37;;;;;;;0.20;0.20;;;;;;;19.08;46.03;100862.53;5076173;27;20089;-45
2023/04/25 07:08:03;;;;;;;0.30;0.30;;;;;;;19.07;46.10;100863.63;5071396;27;20058;-46
2023/04/25 07:10:29;;;;;;;0.20;0.20;;;;;;;19.07;45.85;100860.88;5074327;27;20066;-45
2023/04/25 07:12:55;;;;;;;0.20;0.20;;;;;;;19.06;46.01;100864.75;5082241;27;20135;-44
2023/04/25 07:15:20;;;;;;;0.25;0.25;;;;;;;19.06;46.11;100867.50;5081221;27;20484;-45
2023/04/25 07:17:46;;;;;;;0.20;0.20;;;;;;;19.05;45.94;100869.44;5079737;27;20047;-47
2023/04/25 07:20:12;;;;;;;0.20;0.20;;;;;;;19.05;46.05;100877.72;5089193;27;20062;-46
2023/04/25 07:22:37;;;;;;;0.30;0.30;;;;;;;19.05;46.15;100886.00;5087552;27;20080;-45
2023/04/25 07:25:05;;;;;;;0.20;0.20;;;;;;;19.08;46.53;100881.84;5091902;27;20051;-48
2023/04/25 07:27:30;;;;;;;0.30;0.30;;;;;;;19.09;46.78;100882.69;5090201;27;20055;-44
2023/04/25 07:29:57;;;;;;;0.20;0.20;;;;;;;19.08;46.63;100878.25;5082922;27;20260;-45
2023/04/25 07:32:22;;;;;;;0.20;0.20;;;;;;;19.09;46.50;100879.94;5080619;27;20051;-45
2023/04/25 07:34:48;;;;;;;0.20;0.20;;;;;;;19.08;46.17;100879.09;5081516;27;20132;-46
2023/04/25 07:37:15;;;;;;;0.20;0.20;;;;;;;19.07;45.92;100885.72;5085917;27;20843;-48
2023/04/25 07:39:41;;;;;;;0.30;0.30;;;;;;;19.08;44.76;100894.81;5087147;27;20047;-47
2023/04/25 07:42:08;;;;;;;0.30;0.30;;;;;;;19.07;44.34;100890.41;5084893;27;20043;-45
2023/04/25 07:44:38;;;;;;;0.20;0.20;;;;;;;19.08;45.75;100890.13;5087582;27;20085;-46
2023/04/25 07:47:06;;;;;;;0.20;0.20;;;;;;;19.09;45.93;100893.75;5080274;27;20055;-47
2023/04/25 07:49:34;;;;;;;0.30;0.30;;;;;;;19.09;46.07;100891.81;5093576;27;20213;-46
2023/04/25 07:52:00;;;;;;;0.20;0.20;;;;;;;19.09;46.12;100900.09;5092926;28;20036;-47
2023/04/25 07:54:26;;;;;;;0.20;0.20;;;;;;;19.07;44.28;100901.47;5098706;28;20348;-46
2023/04/25 07:56:51;;;;;;;0.22;0.22;;;;;;;19.09;45.39;100907.53;5089970;27;20276;-45
2023/04/25 07:59:19;;;;;;;0.20;0.20;;;;;;;19.08;44.28;100909.44;5086935;27;20062;-47
2023/04/25 08:01:45;;;;;;;0.20;0.20;;;;;;;19.08;44.17;100909.44;5084251;27;20054;-45
2023/04/25 08:04:11;;;;;;;0.20;0.20;;;;;;;19.09;43.92;100910.31;5085470;27;20039;-47
2023/04/25 08:06:37;;;;;;;0.20;0.20;;;;;;;19.07;43.45;100918.00;5086619;27;20139;-46
2023/04/25 08:09:03;;;;;;;0.20;0.20;;;;;;;18.95;43.48;100921.06;5083489;27;20571;-47
2023/04/25 08:11:29;;;;;;;0.30;0.30;;;;;;;19.04;43.10;100928.53;5081188;27;20052;-47
2023/04/25 08:13:55;;;;;;;0.30;0.30;;;;;;;19.02;42.59;100925.19;5089127;27;20048;-43
2023/04/25 08:16:21;;;;;;;0.30;0.30;;;;;;;18.99;42.97;100923.00;5080259;27;20562;-45
2023/04/25 08:18:46;;;;;;;0.30;0.30;;;;;;;19.07;42.91;100937.34;5087430;27;20043;-45
2023/04/25 08:21:13;;;;;;;0.20;0.20;;;;;;;19.05;42.53;100935.69;5093476;27;20047;-48
2023/04/25 08:23:38;;;;;;;0.30;0.30;;;;;;;19.07;41.53;100938.16;5094352;28;20410;-45
2023/04/25 08:26:05;;;;;;;0.30;0.30;;;;;;;19.10;42.38;100931.28;5097304;27;20495;-45
2023/04/25 08:28:31;;;;;;;0.30;0.30;;;;;;;19.11;42.97;100938.44;5087098;27;20478;-44
2023/04/25 08:30:57;;;;;;;0.30;0.30;;;;;;;19.10;42.88;100940.38;5085742;27;20047;-47
2023/04/25 08:33:22;;;;;;;0.20;0.20;;;;;;;19.10;43.10;100945.91;5077962;28;20058;-44
2023/04/25 08:35:48;;;;;;;0.30;0.30;;;;;;;19.10;43.27;100945.91;5074098;27;20051;-45
2023/04/25 08:38:14;;;;;;;0.28;0.28;;;;;;;19.10;43.11;100959.69;5072173;27;20059;-45
2023/04/25 08:40:41;;;;;;;0.20;0.20;;;;;;;19.11;42.88;100961.34;5082426;27;20096;-44
2023/04/25 08:43:11;;;;;;;0.30;0.30;;;;;;;19.12;43.32;100954.72;5080581;27;20525;-44
2023/04/25 08:45:41;;;;;;;0.20;0.20;;;;;;;19.13;43.40;100959.16;5091269;27;20426;-45
2023/04/25 08:48:11;;;;;;;0.30;0.30;;;;;;;19.13;43.30;100964.66;5100766;27;20112;-46
2023/04/25 08:50:40;;;;;;;0.30;0.30;;;;;;;19.12;43.37;100965.75;5095390;27;20047;-45
2023/04/25 08:53:08;;;;;;;0.30;0.30;;;;;;;19.14;43.68;100976.53;5094756;28;20475;-45
2023/04/25 08:55:35;;;;;;;;;;;;;;;19.15;43.88;100978.19;5094849;28;20462;-49
2023/04/25 08:58:01;;;;;;;0.30;0.30;;;;;;;19.13;43.97;100981.22;5094290;27;20569;-45
2023/04/25 09:00:27;;;;;;;0.30;0.30;;;;;;;19.14;44.15;100982.06;5096634;27;20179;-45
2023/04/25 09:02:53;;;;;;;0.20;0.20;;;;;;;19.15;44.14;100980.94;5099944;27;20464;-45
2023/04/25 09:05:19;;;;;;;0.22;0.22;;;;;;;19.15;43.95;100989.22;5100457;28;20051;-45
2023/04/25 09:07:47;;;;;;;0.30;0.30;;;;;;;19.14;44.07;100993.09;5096925;27;20039;-45
2023/04/25 09:10:15;;;;;;;0.20;0.20;;;;;;;19.15;44.12;101005.78;5096445;27;20499;-44
2023/04/25 09:12:42;;;;;;;0.20;0.20;;;;;;;19.14;44.15;100996.69;5096882;27;20469;-49
2023/04/25 09:15:10;;;;;;;0.20;0.20;;;;;;;19.16;44.41;101004.66;5096004;28;20705;-47
2023/04/25 09:17:40;;;;;;;0.20;0.20;;;;;;;19.16;44.08;101008.25;5087554;27;20174;-46
2023/04/25 09:20:11;;;;;;;0.20;0.20;;;;;;;19.17;44.11;101014.59;5100503;27;20285;-45
2023/04/25 09:22:37;;;;;;;0.20;0.20;;;;;;;19.17;44.18;101014.59;5103642;27;20078;-47
2023/04/25 09:25:09;;;;;;;0.30;0.30;;;;;;;19.17;44.08;101009.94;5078148;28;20059;-46
2023/04/25 09:27:34;;;;;;;0.20;0.20;;;;;;;19.16;44.29;101007.44;5074722;27;20094;-47
2023/04/25 09:30:00;;;;;;;0.20;0.20;;;;;;;19.17;44.06;101011.84;5098249;27;20059;-47
2023/04/25 09:32:26;;;;;;;0.30;0.30;;;;;;;19.17;44.04;101020.13;5098311;27;20199;-44
2023/04/25 09:34:55;;;;;;;0.20;0.20;;;;;;;19.18;43.85;101016.28;5088656;27;20054;-45
2023/04/25 09:37:24;;;;;;;0.30;0.30;;;;;;;19.17;43.42;101022.88;5087549;27;20066;-43
2023/04/25 09:39:52;;;;;;;0.25;0.25;;;;;;;19.20;43.48;101020.41;5065910;28;20059;-46
2023/04/25 09:42:18;;;;;;;;;;;;;;;19.21;42.88;101023.97;5074527;27;20655;-45
2023/04/25 09:44:45;;;;;;;0.30;0.30;;;;;;;19.18;43.00;101030.09;5083816;27;19936;-44
2023/04/25 09:47:12;;;;;;;0.20;0.20;;;;;;;19.22;43.70;101026.47;5061094;27;20051;-44
2023/04/25 09:49:42;;;;;;;0.30;0.30;;;;;;;19.27;44.17;101031.16;5085224;27;20039;-45
2023/04/25 09:52:07;;;;;;;0.20;0.20;;;;;;;19.28;42.58;101035.56;5070076;27;20047;-45
2023/04/25 09:54:33;;;;;;;0.20;0.20;;;;;;;19.28;42.78;101035.56;5085322;27;20756;-46
2023/04/25 09:57:10;;;;;;;0.20;0.20;;;;;;;19.25;42.68;101041.66;5086627;27;20703;-44
2023/04/25 09:59:38;;;;;;;0.30;0.30;;;;;;;19.25;42.58;101044.41;5083922;27;20483;-46
2023/04/25 10:02:05;;;;;;;0.20;0.20;;;;;;;19.21;43.34;101041.41;5090089;27;20065;-45
2023/04/25 10:04:33;;;;;;;0.20;0.20;;;;;;;19.23;43.44;101046.63;5090169;28;20055;-46
2023/04/25 10:06:59;;;;;;;;;;;;;;;19.23;43.18;101057.69;5090212;27;20473;-45
2023/04/25 10:09:26;;;;;;;0.28;0.28;;;;;;;19.23;43.78;101060.44;5094344;27;20382;-45
2023/04/25 10:11:51;;;;;;;0.20;0.20;;;;;;;19.24;43.57;101062.91;5082278;27;20058;-46
2023/04/25 10:14:18;;;;;;;0.25;0.25;;;;;;;19.22;43.33;101070.66;5079542;27;20463;-46
2023/04/25 10:16:45;;;;;;;0.20;0.20;;;;;;;19.23;43.57;101068.72;5081705;27;20043;-47
2023/04/25 10:19:11;;;;;;;0.30;0.30;;;;;;;19.22;43.59;101075.34;5094817;27;20745;-45
2023/04/25 10:21:44;;;;;;;0.20;0.20;;;;;;;19.24;43.06;101073.97;5092173;27;20577;-45
2023/04/25 10:24:10;;;;;;;0.20;0.20;;;;;;;19.22;43.67;101078.13;5098967;27;20082;-45
2023/04/25 10:26:36;;;;;;;0.30;0.30;;;;;;;19.24;43.46;101079.47;5080135;27;20126;-47
2023/04/25 10:29:03;;;;;;;0.28;0.28;;;;;;;19.23;43.48;101082.53;5082574;27;20471;-47
2023/04/25 10:31:30;;;;;;;0.30;0.30;;;;;;;19.23;43.47;101077.84;5087307;27;23088;-47
2023/04/25 10:33:56;;;;;;;0.30;0.30;;;;;;;19.23;43.15;101082.53;5076081;28;20598;-50
2023/04/25 10:36:23;;;;;;;0.30;0.30;;;;;;;19.25;43.39;101083.88;5076492;27;20183;-46
2023/04/25 10:38:51;;;;;;;0.20;0.20;;;;;;;19.24;43.41;101085.00;5078159;27;20116;-46
2023/04/25 10:41:19;;;;;;;0.30;0.30;;;;;;;19.25;43.16;101085.81;5077653;27;20474;-46
2023/04/25 10:43:46;;;;;;;0.20;0.20;;;;;;;19.23;42.42;101080.59;5087394;28;20046;-45
2023/04/25 10:46:15;;;;;;;0.28;0.28;;;;;;;19.22;42.57;101078.94;5076398;27;20039;-46
2023/04/25 10:49:01;;;;;;;0.25;0.25;;;;;;;19.20;41.97;101086.66;5068823;27;20055;-46
2023/04/25 10:51:30;;;;;;;0.20;0.20;;;;;;;19.19;41.32;101078.66;5080294;27;20090;-46
2023/04/25 10:54:09;;;;;;;0.30;0.30;;;;;;;19.19;41.06;101076.72;5084190;28;20043;-48
2023/04/25 10:56:40;;;;;;;0.30;0.30;;;;;;;19.19;40.38;101076.72;5094362;27;20194;-45
2023/04/25 10:59:08;;;;;;;0.20;0.20;;;;;;;19.19;41.37;101067.63;5097660;27;20051;-48
2023/04/25 11:01:39;;;;;;;0.20;0.20;;;;;;;19.04;36.18;101073.97;5091377;27;20046;-46
2023/04/25 11:04:05;;;;;;;0.30;0.30;;;;;;;19.09;37.76;101081.44;5078598;27;20480;-45
2023/04/25 11:06:58;;;;;;;0.20;0.20;;;;;;;19.15;38.37;101074.81;5062067;27;20430;-45
2023/04/25 11:09:45;;;;;;;0.30;0.30;;;;;;;19.17;38.60;101075.34;5041477;27;20055;-49
2023/04/25 11:12:12;;;;;;;0.20;0.20;;;;;;;19.18;39.53;101074.25;5055229;27;20449;-44
2023/04/25 11:14:38;;;;;;;0.20;0.20;;;;;;;19.18;39.19;101072.31;5047651;28;20075;-46
2023/04/25 11:17:10;;;;;;;0.20;0.20;;;;;;;19.19;40.16;101079.50;5041849;28;20084;-45
2023/04/25 11:19:36;;;;;;;0.20;0.20;;;;;;;19.19;39.91;101073.97;5044493;28;20071;-45
2023/04/25 11:22:03;;;;;;;0.30;0.30;;;;;;;19.19;40.18;101086.94;5038770;28;20236;-45
2023/04/25 11:24:30;;;;;;;0.30;0.30;;;;;;;19.17;39.97;101075.34;5039153;28;20079;-46